sensor_id;sensor_type;location;lat;lon;timestamp;temperature;humidity
35607;DHT22;21729;58.392;15.656;2023-04-01T00:00:46;-7.30;78.10
35607;DHT22;21729;58.392;15.656;2023-04-01T00:03:13;-7.40;63.50
35607;DHT22;21729;58.392;15.656;2023-04-01T00:05:41;-7.20;79.80
35607;DHT22;21729;58.392;15.656;2023-04-01T00:08:09;-7.40;78.60
35607;DHT22;21729;58.392;15.656;2023-04-01T00:10:36;-7.40;81.00
35607;DHT22;21729;58.392;15.656;2023-04-01T00:13:04;-7.40;78.10
35607;DHT22;21729;58.392;15.656;2023-04-01T00:15:31;-7.30;82.10
35607;DHT22;21729;58.392;15.656;2023-04-01T00:17:58;-7.60;91.70
35607;DHT22;21729;58.392;15.656;2023-04-01T00:20:26;-7.70;84.50
35607;DHT22;21729;58.392;15.656;2023-04-01T00:22:53;-7.70;87.50
35607;DHT22;21729;58.392;15.656;2023-04-01T00:25:22;-7.60;99.90
35607;DHT22;21729;58.392;15.656;2023-04-01T00:27:50;-7.70;99.90
35607;DHT22;21729;58.392;15.656;2023-04-01T00:30:17;-7.70;99.90
35607;DHT22;21729;58.392;15.656;2023-04-01T00:32:44;-7.60;99.90
35607;DHT22;21729;58.392;15.656;2023-04-01T00:35:12;-7.80;99.90
35607;DHT22;21729;58.392;15.656;2023-04-01T00:37:39;-7.70;99.90
35607;DHT22;21729;58.392;15.656;2023-04-01T00:40:08;-7.80;99.90
35607;DHT22;21729;58.392;15.656;2023-04-01T00:42:46;-7.70;99.90
35607;DHT22;21729;58.392;15.656;2023-04-01T00:45:29;-7.80;99.90
35607;DHT22;21729;58.392;15.656;2023-04-01T00:47:59;-7.90;99.90
35607;DHT22;21729;58.392;15.656;2023-04-01T00:50:29;-7.90;99.90
35607;DHT22;21729;58.392;15.656;2023-04-01T00:52:58;-7.60;99.90
35607;DHT22;21729;58.392;15.656;2023-04-01T00:55:29;-7.60;99.90
35607;DHT22;21729;58.392;15.656;2023-04-01T00:57:59;-7.70;99.90
35607;DHT22;21729;58.392;15.656;2023-04-01T01:00:26;-8.00;99.90
35607;DHT22;21729;58.392;15.656;2023-04-01T01:02:53;-7.60;99.90
35607;DHT22;21729;58.392;15.656;2023-04-01T01:05:26;-7.70;99.90
35607;DHT22;21729;58.392;15.656;2023-04-01T01:08:03;-7.20;99.90
35607;DHT22;21729;58.392;15.656;2023-04-01T01:10:33;-6.70;99.90
35607;DHT22;21729;58.392;15.656;2023-04-01T01:13:10;-7.10;99.90
35607;DHT22;21729;58.392;15.656;2023-04-01T01:15:44;-7.00;99.90
35607;DHT22;21729;58.392;15.656;2023-04-01T01:18:18;-7.10;93.20
35607;DHT22;21729;58.392;15.656;2023-04-01T01:21:05;-6.80;75.80
35607;DHT22;21729;58.392;15.656;2023-04-01T01:26:53;-7.00;99.90
35607;DHT22;21729;58.392;15.656;2023-04-01T01:29:45;-6.80;99.90
35607;DHT22;21729;58.392;15.656;2023-04-01T01:32:24;-6.70;75.50
35607;DHT22;21729;58.392;15.656;2023-04-01T01:34:55;-6.30;1.00
35607;DHT22;21729;58.392;15.656;2023-04-01T01:37:27;-6.70;1.00
35607;DHT22;21729;58.392;15.656;2023-04-01T01:39:59;-6.70;8.90
35607;DHT22;21729;58.392;15.656;2023-04-01T01:42:29;-6.60;2.00
35607;DHT22;21729;58.392;15.656;2023-04-01T01:45:00;-6.80;1.00
35607;DHT22;21729;58.392;15.656;2023-04-01T01:47:28;-6.90;1.00
35607;DHT22;21729;58.392;15.656;2023-04-01T01:49:57;-6.90;1.00
35607;DHT22;21729;58.392;15.656;2023-04-01T01:52:26;-6.90;13.90
35607;DHT22;21729;58.392;15.656;2023-04-01T01:54:56;-7.10;1.00
35607;DHT22;21729;58.392;15.656;2023-04-01T01:57:26;-7.10;7.20
35607;DHT22;21729;58.392;15.656;2023-04-01T01:59:56;-7.20;9.90
35607;DHT22;21729;58.392;15.656;2023-04-01T02:02:26;-7.40;26.10
35607;DHT22;21729;58.392;15.656;2023-04-01T02:04:57;-7.50;32.20
35607;DHT22;21729;58.392;15.656;2023-04-01T02:07:30;-7.10;42.80
35607;DHT22;21729;58.392;15.656;2023-04-01T02:09:59;-7.40;44.20
35607;DHT22;21729;58.392;15.656;2023-04-01T02:12:27;-7.50;37.60
35607;DHT22;21729;58.392;15.656;2023-04-01T02:14:58;-7.50;55.90
35607;DHT22;21729;58.392;15.656;2023-04-01T02:17:29;-7.60;37.80
35607;DHT22;21729;58.392;15.656;2023-04-01T02:19:58;-7.60;58.70
35607;DHT22;21729;58.392;15.656;2023-04-01T02:22:29;-7.70;52.80
35607;DHT22;21729;58.392;15.656;2023-04-01T02:25:00;-7.60;57.80
35607;DHT22;21729;58.392;15.656;2023-04-01T02:27:28;-7.60;48.20
35607;DHT22;21729;58.392;15.656;2023-04-01T02:29:55;-7.70;45.00
35607;DHT22;21729;58.392;15.656;2023-04-01T02:32:22;-7.70;38.50
35607;DHT22;21729;58.392;15.656;2023-04-01T02:34:49;-7.40;54.20
35607;DHT22;21729;58.392;15.656;2023-04-01T02:37:17;-7.30;52.90
35607;DHT22;21729;58.392;15.656;2023-04-01T02:39:46;-7.50;23.60
35607;DHT22;21729;58.392;15.656;2023-04-01T02:42:13;-7.30;40.40
35607;DHT22;21729;58.392;15.656;2023-04-01T02:44:41;-7.20;25.30
35607;DHT22;21729;58.392;15.656;2023-04-01T02:47:08;-7.10;14.90
35607;DHT22;21729;58.392;15.656;2023-04-01T02:49:35;-6.90;1.00
35607;DHT22;21729;58.392;15.656;2023-04-01T02:52:03;-6.90;1.00
35607;DHT22;21729;58.392;15.656;2023-04-01T02:54:30;-6.90;1.00
35607;DHT22;21729;58.392;15.656;2023-04-01T02:56:58;-6.70;1.00
35607;DHT22;21729;58.392;15.656;2023-04-01T02:59:26;-7.00;1.00
35607;DHT22;21729;58.392;15.656;2023-04-01T03:01:53;-6.70;1.00
35607;DHT22;21729;58.392;15.656;2023-04-01T03:04:20;-7.20;1.00
35607;DHT22;21729;58.392;15.656;2023-04-01T03:06:47;-7.10;1.00
35607;DHT22;21729;58.392;15.656;2023-04-01T03:09:14;-6.70;1.00
35607;DHT22;21729;58.392;15.656;2023-04-01T03:11:41;-7.20;1.00
35607;DHT22;21729;58.392;15.656;2023-04-01T03:14:10;-7.30;1.00
35607;DHT22;21729;58.392;15.656;2023-04-01T03:16:37;-7.30;1.00
35607;DHT22;21729;58.392;15.656;2023-04-01T03:19:04;-7.40;1.00
35607;DHT22;21729;58.392;15.656;2023-04-01T03:21:31;-7.60;1.00
35607;DHT22;21729;58.392;15.656;2023-04-01T03:23:58;-7.60;1.00
35607;DHT22;21729;58.392;15.656;2023-04-01T03:26:25;-7.70;1.00
35607;DHT22;21729;58.392;15.656;2023-04-01T03:28:53;-7.80;1.00
35607;DHT22;21729;58.392;15.656;2023-04-01T03:31:22;-7.70;9.40
35607;DHT22;21729;58.392;15.656;2023-04-01T03:33:49;-7.50;36.90
35607;DHT22;21729;58.392;15.656;2023-04-01T03:36:17;-7.10;21.80
35607;DHT22;21729;58.392;15.656;2023-04-01T03:38:44;-6.90;13.10
35607;DHT22;21729;58.392;15.656;2023-04-01T03:41:12;-6.70;1.00
35607;DHT22;21729;58.392;15.656;2023-04-01T03:43:39;-6.90;1.00
35607;DHT22;21729;58.392;15.656;2023-04-01T03:46:06;-6.70;1.00
35607;DHT22;21729;58.392;15.656;2023-04-01T03:48:35;-6.80;1.00
35607;DHT22;21729;58.392;15.656;2023-04-01T03:51:06;-6.50;1.00
35607;DHT22;21729;58.392;15.656;2023-04-01T03:53:33;-6.60;1.00
35607;DHT22;21729;58.392;15.656;2023-04-01T03:56:03;-6.30;1.00
35607;DHT22;21729;58.392;15.656;2023-04-01T03:58:31;-6.70;1.00
35607;DHT22;21729;58.392;15.656;2023-04-01T04:00:58;-6.80;1.00
35607;DHT22;21729;58.392;15.656;2023-04-01T04:03:25;-6.70;1.00
35607;DHT22;21729;58.392;15.656;2023-04-01T04:05:54;-6.60;1.00
35607;DHT22;21729;58.392;15.656;2023-04-01T04:08:22;-6.50;1.00
35607;DHT22;21729;58.392;15.656;2023-04-01T04:10:55;-6.40;1.00
35607;DHT22;21729;58.392;15.656;2023-04-01T04:13:22;-6.60;1.00
35607;DHT22;21729;58.392;15.656;2023-04-01T04:15:49;-6.50;1.00
35607;DHT22;21729;58.392;15.656;2023-04-01T04:18:16;-6.80;1.00
35607;DHT22;21729;58.392;15.656;2023-04-01T04:20:44;-6.90;1.00
35607;DHT22;21729;58.392;15.656;2023-04-01T04:23:15;-6.80;1.00
35607;DHT22;21729;58.392;15.656;2023-04-01T04:25:53;-6.80;1.00
35607;DHT22;21729;58.392;15.656;2023-04-01T04:28:20;-6.90;1.00
35607;DHT22;21729;58.392;15.656;2023-04-01T04:30:47;-6.70;1.00
35607;DHT22;21729;58.392;15.656;2023-04-01T04:33:18;-6.80;1.00
35607;DHT22;21729;58.392;15.656;2023-04-01T04:35:45;-6.70;1.00
35607;DHT22;21729;58.392;15.656;2023-04-01T04:38:12;-6.60;1.00
35607;DHT22;21729;58.392;15.656;2023-04-01T04:40:42;-6.30;1.00
35607;DHT22;21729;58.392;15.656;2023-04-01T04:43:11;-6.50;1.00
35607;DHT22;21729;58.392;15.656;2023-04-01T04:45:38;-6.50;1.00
35607;DHT22;21729;58.392;15.656;2023-04-01T04:48:07;-6.40;1.00
35607;DHT22;21729;58.392;15.656;2023-04-01T04:50:35;-6.30;1.00
35607;DHT22;21729;58.392;15.656;2023-04-01T04:53:02;-6.30;1.00
35607;DHT22;21729;58.392;15.656;2023-04-01T04:55:29;-6.20;1.00
35607;DHT22;21729;58.392;15.656;2023-04-01T04:57:58;-6.20;1.00
35607;DHT22;21729;58.392;15.656;2023-04-01T05:00:25;-6.20;1.00
35607;DHT22;21729;58.392;15.656;2023-04-01T05:02:52;-6.20;1.00
35607;DHT22;21729;58.392;15.656;2023-04-01T05:05:19;-6.10;1.00
35607;DHT22;21729;58.392;15.656;2023-04-01T05:07:46;-6.10;1.00
35607;DHT22;21729;58.392;15.656;2023-04-01T05:10:13;-6.20;1.00
35607;DHT22;21729;58.392;15.656;2023-04-01T05:12:40;-5.80;1.00
35607;DHT22;21729;58.392;15.656;2023-04-01T05:15:10;-6.00;1.00
35607;DHT22;21729;58.392;15.656;2023-04-01T05:17:37;-6.20;1.00
35607;DHT22;21729;58.392;15.656;2023-04-01T05:20:05;-6.20;1.00
35607;DHT22;21729;58.392;15.656;2023-04-01T05:22:33;-6.00;1.00
35607;DHT22;21729;58.392;15.656;2023-04-01T05:25:02;-6.00;1.00
35607;DHT22;21729;58.392;15.656;2023-04-01T05:27:29;-5.90;99.90
35607;DHT22;21729;58.392;15.656;2023-04-01T05:29:57;-5.90;99.90
35607;DHT22;21729;58.392;15.656;2023-04-01T05:32:31;-5.90;99.90
35607;DHT22;21729;58.392;15.656;2023-04-01T05:34:58;-5.80;99.90
35607;DHT22;21729;58.392;15.656;2023-04-01T05:37:25;-5.80;99.90
35607;DHT22;21729;58.392;15.656;2023-04-01T05:39:52;-5.70;99.90
35607;DHT22;21729;58.392;15.656;2023-04-01T05:42:20;-5.60;99.90
35607;DHT22;21729;58.392;15.656;2023-04-01T05:44:47;-5.40;99.90
35607;DHT22;21729;58.392;15.656;2023-04-01T05:47:14;-5.40;99.90
35607;DHT22;21729;58.392;15.656;2023-04-01T05:49:42;-5.30;99.90
35607;DHT22;21729;58.392;15.656;2023-04-01T05:52:10;-5.30;99.90
35607;DHT22;21729;58.392;15.656;2023-04-01T05:54:37;-5.30;99.90
35607;DHT22;21729;58.392;15.656;2023-04-01T05:57:04;-5.20;99.90
35607;DHT22;21729;58.392;15.656;2023-04-01T05:59:31;-5.00;99.90
35607;DHT22;21729;58.392;15.656;2023-04-01T06:01:58;-5.10;99.90
35607;DHT22;21729;58.392;15.656;2023-04-01T06:04:26;-5.00;99.90
35607;DHT22;21729;58.392;15.656;2023-04-01T06:06:57;-4.90;99.90
35607;DHT22;21729;58.392;15.656;2023-04-01T06:09:27;-4.80;99.90
35607;DHT22;21729;58.392;15.656;2023-04-01T06:12:17;-4.80;99.90
35607;DHT22;21729;58.392;15.656;2023-04-01T06:14:52;-4.70;99.90
35607;DHT22;21729;58.392;15.656;2023-04-01T06:17:30;-4.60;99.90
35607;DHT22;21729;58.392;15.656;2023-04-01T06:20:05;-4.50;99.90
35607;DHT22;21729;58.392;15.656;2023-04-01T06:26:10;-4.20;99.90
35607;DHT22;21729;58.392;15.656;2023-04-01T06:29:02;-4.00;99.90
35607;DHT22;21729;58.392;15.656;2023-04-01T06:31:57;-3.90;99.90
35607;DHT22;21729;58.392;15.656;2023-04-01T06:40:45;-3.20;99.90
35607;DHT22;21729;58.392;15.656;2023-04-01T06:43:22;-3.20;99.90
35607;DHT22;21729;58.392;15.656;2023-04-01T06:45:55;-3.00;99.90
35607;DHT22;21729;58.392;15.656;2023-04-01T06:51:32;-2.70;90.10
35607;DHT22;21729;58.392;15.656;2023-04-01T06:54:08;-2.60;80.10
35607;DHT22;21729;58.392;15.656;2023-04-01T06:56:38;-2.60;53.90
35607;DHT22;21729;58.392;15.656;2023-04-01T06:59:11;-2.40;41.50
35607;DHT22;21729;58.392;15.656;2023-04-01T07:01:41;-2.40;48.50
35607;DHT22;21729;58.392;15.656;2023-04-01T07:04:13;-2.20;46.10
35607;DHT22;21729;58.392;15.656;2023-04-01T07:06:46;-1.70;39.80
35607;DHT22;21729;58.392;15.656;2023-04-01T07:09:18;-1.80;25.50
35607;DHT22;21729;58.392;15.656;2023-04-01T07:11:45;-1.40;35.30
35607;DHT22;21729;58.392;15.656;2023-04-01T07:14:17;-1.30;1.00
35607;DHT22;21729;58.392;15.656;2023-04-01T07:16:49;-0.80;1.00
35607;DHT22;21729;58.392;15.656;2023-04-01T07:19:22;3.80;1.00
35607;DHT22;21729;58.392;15.656;2023-04-01T07:21:54;5.90;1.00
35607;DHT22;21729;58.392;15.656;2023-04-01T07:24:25;8.50;99.90
35607;DHT22;21729;58.392;15.656;2023-04-01T07:26:54;8.40;99.90
35607;DHT22;21729;58.392;15.656;2023-04-01T07:29:23;8.80;99.90
35607;DHT22;21729;58.392;15.656;2023-04-01T07:34:55;9.70;99.90
35607;DHT22;21729;58.392;15.656;2023-04-01T07:37:31;10.30;99.90
35607;DHT22;21729;58.392;15.656;2023-04-01T07:40:11;10.60;99.90
35607;DHT22;21729;58.392;15.656;2023-04-01T07:42:52;9.70;99.90
35607;DHT22;21729;58.392;15.656;2023-04-01T07:45:28;10.60;99.90
35607;DHT22;21729;58.392;15.656;2023-04-01T07:48:07;11.00;99.90
35607;DHT22;21729;58.392;15.656;2023-04-01T07:50:40;10.80;99.90
35607;DHT22;21729;58.392;15.656;2023-04-01T07:53:12;11.60;99.90
35607;DHT22;21729;58.392;15.656;2023-04-01T07:55:48;10.50;99.90
35607;DHT22;21729;58.392;15.656;2023-04-01T07:58:24;11.70;99.90
35607;DHT22;21729;58.392;15.656;2023-04-01T08:00:59;12.20;99.90
35607;DHT22;21729;58.392;15.656;2023-04-01T08:03:38;12.70;99.90
35607;DHT22;21729;58.392;15.656;2023-04-01T08:06:14;12.80;99.90
35607;DHT22;21729;58.392;15.656;2023-04-01T08:08:54;10.80;99.90
35607;DHT22;21729;58.392;15.656;2023-04-01T08:11:31;10.50;99.90
35607;DHT22;21729;58.392;15.656;2023-04-01T08:14:07;12.10;99.90
35607;DHT22;21729;58.392;15.656;2023-04-01T08:16:43;11.30;99.90
35607;DHT22;21729;58.392;15.656;2023-04-01T08:19:24;12.70;99.90
35607;DHT22;21729;58.392;15.656;2023-04-01T08:21:55;13.30;99.90
35607;DHT22;21729;58.392;15.656;2023-04-01T08:24:29;13.60;99.90
35607;DHT22;21729;58.392;15.656;2023-04-01T08:27:03;12.30;99.90
35607;DHT22;21729;58.392;15.656;2023-04-01T08:29:36;13.10;99.90
35607;DHT22;21729;58.392;15.656;2023-04-01T08:32:12;12.70;99.90
35607;DHT22;21729;58.392;15.656;2023-04-01T08:34:42;11.70;99.90
35607;DHT22;21729;58.392;15.656;2023-04-01T08:37:14;12.90;99.90
35607;DHT22;21729;58.392;15.656;2023-04-01T08:39:46;12.10;99.90
35607;DHT22;21729;58.392;15.656;2023-04-01T08:42:43;13.20;99.90
35607;DHT22;21729;58.392;15.656;2023-04-01T08:45:48;13.60;99.90
35607;DHT22;21729;58.392;15.656;2023-04-01T08:48:45;13.60;99.90
35607;DHT22;21729;58.392;15.656;2023-04-01T08:54:34;12.20;99.90
35607;DHT22;21729;58.392;15.656;2023-04-01T08:57:08;12.80;99.90
35607;DHT22;21729;58.392;15.656;2023-04-01T08:59:50;13.40;99.90
35607;DHT22;21729;58.392;15.656;2023-04-01T09:02:43;12.80;99.90
35607;DHT22;21729;58.392;15.656;2023-04-01T09:05:32;11.60;99.90
35607;DHT22;21729;58.392;15.656;2023-04-01T09:08:12;12.30;99.90
35607;DHT22;21729;58.392;15.656;2023-04-01T09:10:55;12.70;99.90
35607;DHT22;21729;58.392;15.656;2023-04-01T09:13:33;12.00;99.90
35607;DHT22;21729;58.392;15.656;2023-04-01T09:16:26;13.00;99.90
35607;DHT22;21729;58.392;15.656;2023-04-01T09:19:21;12.60;99.90
35607;DHT22;21729;58.392;15.656;2023-04-01T09:22:01;13.60;99.90
35607;DHT22;21729;58.392;15.656;2023-04-01T09:24:45;12.80;99.90
35607;DHT22;21729;58.392;15.656;2023-04-01T09:27:26;12.50;99.90
35607;DHT22;21729;58.392;15.656;2023-04-01T09:30:28;14.00;99.90
35607;DHT22;21729;58.392;15.656;2023-04-01T09:33:24;13.40;99.90
35607;DHT22;21729;58.392;15.656;2023-04-01T09:36:03;14.30;99.90
35607;DHT22;21729;58.392;15.656;2023-04-01T09:38:42;12.00;99.90
35607;DHT22;21729;58.392;15.656;2023-04-01T09:41:22;12.60;99.90
35607;DHT22;21729;58.392;15.656;2023-04-01T09:44:01;12.30;99.90
35607;DHT22;21729;58.392;15.656;2023-04-01T09:46:40;12.80;99.90
35607;DHT22;21729;58.392;15.656;2023-04-01T09:52:33;12.00;99.90
35607;DHT22;21729;58.392;15.656;2023-04-01T09:55:19;13.00;99.90
35607;DHT22;21729;58.392;15.656;2023-04-01T10:01:10;11.30;99.90
35607;DHT22;21729;58.392;15.656;2023-04-01T10:04:14;11.50;99.90
35607;DHT22;21729;58.392;15.656;2023-04-01T10:13:38;12.50;99.90
35607;DHT22;21729;58.392;15.656;2023-04-01T10:19:31;8.90;99.90
35607;DHT22;21729;58.392;15.656;2023-04-01T10:25:26;6.20;99.90
35607;DHT22;21729;58.392;15.656;2023-04-01T10:28:15;6.40;99.90
35607;DHT22;21729;58.392;15.656;2023-04-01T10:34:10;6.20;99.90
35607;DHT22;21729;58.392;15.656;2023-04-01T10:36:52;6.10;99.90
35607;DHT22;21729;58.392;15.656;2023-04-01T10:42:50;5.20;99.90
35607;DHT22;21729;58.392;15.656;2023-04-01T10:46:01;5.70;99.90
35607;DHT22;21729;58.392;15.656;2023-04-01T10:49:05;5.70;99.90
35607;DHT22;21729;58.392;15.656;2023-04-01T10:54:46;5.30;99.90
35607;DHT22;21729;58.392;15.656;2023-04-01T10:57:47;5.50;99.90
35607;DHT22;21729;58.392;15.656;2023-04-01T11:00:55;5.20;99.90
35607;DHT22;21729;58.392;15.656;2023-04-01T11:10:01;5.60;99.90
35607;DHT22;21729;58.392;15.656;2023-04-01T11:18:51;5.00;99.90
35607;DHT22;21729;58.392;15.656;2023-04-01T11:21:44;5.20;99.90
35607;DHT22;21729;58.392;15.656;2023-04-01T11:24:35;4.90;99.90
35607;DHT22;21729;58.392;15.656;2023-04-01T11:27:23;4.70;99.90
35607;DHT22;21729;58.392;15.656;2023-04-01T11:30:18;4.60;99.90
35607;DHT22;21729;58.392;15.656;2023-04-01T11:32:52;4.90;99.90
35607;DHT22;21729;58.392;15.656;2023-04-01T11:35:42;4.70;99.90
35607;DHT22;21729;58.392;15.656;2023-04-01T11:38:19;4.60;99.90
35607;DHT22;21729;58.392;15.656;2023-04-01T11:40:56;4.70;99.90
35607;DHT22;21729;58.392;15.656;2023-04-01T11:43:32;5.00;99.90
35607;DHT22;21729;58.392;15.656;2023-04-01T11:46:05;4.60;99.90
35607;DHT22;21729;58.392;15.656;2023-04-01T11:48:56;5.10;99.90
35607;DHT22;21729;58.392;15.656;2023-04-01T11:51:46;5.00;99.90
35607;DHT22;21729;58.392;15.656;2023-04-01T11:54:28;4.50;99.90
35607;DHT22;21729;58.392;15.656;2023-04-01T11:57:12;4.50;99.90
35607;DHT22;21729;58.392;15.656;2023-04-01T12:00:00;4.80;99.90
35607;DHT22;21729;58.392;15.656;2023-04-01T12:02:33;5.00;99.90
35607;DHT22;21729;58.392;15.656;2023-04-01T12:05:26;5.30;99.90
35607;DHT22;21729;58.392;15.656;2023-04-01T12:08:04;5.10;99.90
35607;DHT22;21729;58.392;15.656;2023-04-01T12:10:39;4.90;99.90
35607;DHT22;21729;58.392;15.656;2023-04-01T12:13:18;5.00;99.90
35607;DHT22;21729;58.392;15.656;2023-04-01T12:16:00;5.00;99.90
35607;DHT22;21729;58.392;15.656;2023-04-01T12:18:36;4.90;99.90
35607;DHT22;21729;58.392;15.656;2023-04-01T12:21:14;4.90;99.90
35607;DHT22;21729;58.392;15.656;2023-04-01T12:24:02;4.90;99.90
35607;DHT22;21729;58.392;15.656;2023-04-01T12:26:52;4.70;99.90
35607;DHT22;21729;58.392;15.656;2023-04-01T12:29:48;4.70;99.90
35607;DHT22;21729;58.392;15.656;2023-04-01T12:32:24;5.00;99.90
35607;DHT22;21729;58.392;15.656;2023-04-01T12:35:02;4.90;99.90
35607;DHT22;21729;58.392;15.656;2023-04-01T12:37:39;4.80;99.90
35607;DHT22;21729;58.392;15.656;2023-04-01T12:40:24;4.70;99.90
35607;DHT22;21729;58.392;15.656;2023-04-01T12:43:05;4.70;99.90
35607;DHT22;21729;58.392;15.656;2023-04-01T12:45:40;4.70;99.90
35607;DHT22;21729;58.392;15.656;2023-04-01T12:48:38;4.80;99.90
35607;DHT22;21729;58.392;15.656;2023-04-01T12:51:36;5.10;99.90
35607;DHT22;21729;58.392;15.656;2023-04-01T12:54:27;5.00;99.90
35607;DHT22;21729;58.392;15.656;2023-04-01T12:57:07;4.90;99.90
35607;DHT22;21729;58.392;15.656;2023-04-01T12:59:49;4.90;99.90
35607;DHT22;21729;58.392;15.656;2023-04-01T13:02:28;4.80;99.90
35607;DHT22;21729;58.392;15.656;2023-04-01T13:05:24;4.90;99.90
35607;DHT22;21729;58.392;15.656;2023-04-01T13:08:11;4.90;99.90
35607;DHT22;21729;58.392;15.656;2023-04-01T13:11:07;5.00;99.90
35607;DHT22;21729;58.392;15.656;2023-04-01T13:13:58;5.00;99.90
35607;DHT22;21729;58.392;15.656;2023-04-01T13:16:31;5.00;99.90
35607;DHT22;21729;58.392;15.656;2023-04-01T13:19:05;4.90;99.90
35607;DHT22;21729;58.392;15.656;2023-04-01T13:21:43;4.80;99.90
35607;DHT22;21729;58.392;15.656;2023-04-01T13:24:37;4.80;99.90
35607;DHT22;21729;58.392;15.656;2023-04-01T13:27:11;4.80;99.90
35607;DHT22;21729;58.392;15.656;2023-04-01T13:29:44;4.70;99.90
35607;DHT22;21729;58.392;15.656;2023-04-01T13:32:31;4.60;99.90
35607;DHT22;21729;58.392;15.656;2023-04-01T13:35:17;4.50;99.90
35607;DHT22;21729;58.392;15.656;2023-04-01T13:38:12;4.50;99.90
35607;DHT22;21729;58.392;15.656;2023-04-01T13:40:49;4.60;99.90
35607;DHT22;21729;58.392;15.656;2023-04-01T13:43:22;4.60;99.90
35607;DHT22;21729;58.392;15.656;2023-04-01T13:46:27;4.60;99.90
35607;DHT22;21729;58.392;15.656;2023-04-01T13:49:17;4.50;99.90
35607;DHT22;21729;58.392;15.656;2023-04-01T13:52:11;4.50;99.90
35607;DHT22;21729;58.392;15.656;2023-04-01T13:54:57;4.50;99.90
35607;DHT22;21729;58.392;15.656;2023-04-01T13:57:41;4.40;99.90
35607;DHT22;21729;58.392;15.656;2023-04-01T14:00:25;4.50;99.90
35607;DHT22;21729;58.392;15.656;2023-04-01T14:03:35;4.50;99.90
35607;DHT22;21729;58.392;15.656;2023-04-01T14:06:23;4.50;99.90
35607;DHT22;21729;58.392;15.656;2023-04-01T14:09:19;4.50;99.90
35607;DHT22;21729;58.392;15.656;2023-04-01T14:12:00;4.40;99.90
35607;DHT22;21729;58.392;15.656;2023-04-01T14:14:39;4.50;99.90
35607;DHT22;21729;58.392;15.656;2023-04-01T14:17:30;4.50;99.90
35607;DHT22;21729;58.392;15.656;2023-04-01T14:20:25;4.50;99.90
35607;DHT22;21729;58.392;15.656;2023-04-01T14:23:11;4.50;99.90
35607;DHT22;21729;58.392;15.656;2023-04-01T14:25:54;4.50;99.90
35607;DHT22;21729;58.392;15.656;2023-04-01T14:28:34;4.40;99.90
35607;DHT22;21729;58.392;15.656;2023-04-01T14:31:22;4.50;99.90
35607;DHT22;21729;58.392;15.656;2023-04-01T14:34:00;4.40;99.90
35607;DHT22;21729;58.392;15.656;2023-04-01T14:36:57;4.40;99.90
35607;DHT22;21729;58.392;15.656;2023-04-01T14:39:38;4.30;99.90
35607;DHT22;21729;58.392;15.656;2023-04-01T14:42:23;4.30;99.90
35607;DHT22;21729;58.392;15.656;2023-04-01T14:45:07;4.30;99.90
35607;DHT22;21729;58.392;15.656;2023-04-01T14:47:48;4.20;99.90
35607;DHT22;21729;58.392;15.656;2023-04-01T14:50:20;4.30;99.90
35607;DHT22;21729;58.392;15.656;2023-04-01T14:52:56;4.40;99.90
35607;DHT22;21729;58.392;15.656;2023-04-01T14:55:36;4.30;99.90
35607;DHT22;21729;58.392;15.656;2023-04-01T14:58:12;4.40;99.90
35607;DHT22;21729;58.392;15.656;2023-04-01T15:00:48;4.40;99.90
35607;DHT22;21729;58.392;15.656;2023-04-01T15:03:22;4.30;99.90
35607;DHT22;21729;58.392;15.656;2023-04-01T15:05:56;4.20;99.90
35607;DHT22;21729;58.392;15.656;2023-04-01T15:08:29;4.20;99.90
35607;DHT22;21729;58.392;15.656;2023-04-01T15:11:20;4.30;99.90
35607;DHT22;21729;58.392;15.656;2023-04-01T15:14:06;4.40;99.90
35607;DHT22;21729;58.392;15.656;2023-04-01T15:16:44;4.30;99.90
35607;DHT22;21729;58.392;15.656;2023-04-01T15:19:20;4.30;99.90
35607;DHT22;21729;58.392;15.656;2023-04-01T15:22:10;4.30;99.90
35607;DHT22;21729;58.392;15.656;2023-04-01T15:24:47;4.40;99.90
35607;DHT22;21729;58.392;15.656;2023-04-01T15:27:27;4.30;99.90
35607;DHT22;21729;58.392;15.656;2023-04-01T15:33:14;4.30;99.90
35607;DHT22;21729;58.392;15.656;2023-04-01T15:35:48;4.30;99.90
35607;DHT22;21729;58.392;15.656;2023-04-01T15:38:28;4.20;99.90
35607;DHT22;21729;58.392;15.656;2023-04-01T15:41:03;4.10;99.90
35607;DHT22;21729;58.392;15.656;2023-04-01T15:43:40;4.10;99.90
35607;DHT22;21729;58.392;15.656;2023-04-01T15:46:36;4.10;99.90
35607;DHT22;21729;58.392;15.656;2023-04-01T15:49:31;4.00;99.90
35607;DHT22;21729;58.392;15.656;2023-04-01T15:52:07;4.10;99.90
35607;DHT22;21729;58.392;15.656;2023-04-01T15:58:03;3.90;99.90
35607;DHT22;21729;58.392;15.656;2023-04-01T16:00:43;3.80;99.90
35607;DHT22;21729;58.392;15.656;2023-04-01T16:03:28;3.80;99.90
35607;DHT22;21729;58.392;15.656;2023-04-01T16:06:20;3.80;99.90
35607;DHT22;21729;58.392;15.656;2023-04-01T16:09:06;3.80;99.90
35607;DHT22;21729;58.392;15.656;2023-04-01T16:11:43;3.90;99.90
35607;DHT22;21729;58.392;15.656;2023-04-01T16:14:28;3.80;99.90
35607;DHT22;21729;58.392;15.656;2023-04-01T16:17:11;3.80;99.90
35607;DHT22;21729;58.392;15.656;2023-04-01T16:19:51;3.70;99.90
35607;DHT22;21729;58.392;15.656;2023-04-01T16:22:23;3.70;99.90
35607;DHT22;21729;58.392;15.656;2023-04-01T16:25:07;3.60;99.90
35607;DHT22;21729;58.392;15.656;2023-04-01T16:27:46;3.50;99.90
35607;DHT22;21729;58.392;15.656;2023-04-01T16:30:27;3.50;99.90
35607;DHT22;21729;58.392;15.656;2023-04-01T16:33:02;3.50;99.90
35607;DHT22;21729;58.392;15.656;2023-04-01T16:35:37;3.60;99.90
35607;DHT22;21729;58.392;15.656;2023-04-01T16:38:13;3.40;99.90
35607;DHT22;21729;58.392;15.656;2023-04-01T16:40:46;3.20;1.00
35607;DHT22;21729;58.392;15.656;2023-04-01T16:43:21;3.20;1.00
35607;DHT22;21729;58.392;15.656;2023-04-01T16:46:19;3.10;1.00
35607;DHT22;21729;58.392;15.656;2023-04-01T16:48:58;3.10;1.00
35607;DHT22;21729;58.392;15.656;2023-04-01T16:51:31;3.00;1.00
35607;DHT22;21729;58.392;15.656;2023-04-01T16:54:05;2.90;1.00
35607;DHT22;21729;58.392;15.656;2023-04-01T16:56:40;3.00;1.00
35607;DHT22;21729;58.392;15.656;2023-04-01T16:59:17;3.10;1.00
35607;DHT22;21729;58.392;15.656;2023-04-01T17:01:52;3.10;1.00
35607;DHT22;21729;58.392;15.656;2023-04-01T17:04:26;3.10;1.00
35607;DHT22;21729;58.392;15.656;2023-04-01T17:07:05;2.80;1.00
35607;DHT22;21729;58.392;15.656;2023-04-01T17:10:00;2.90;1.00
35607;DHT22;21729;58.392;15.656;2023-04-01T17:12:34;2.90;1.00
35607;DHT22;21729;58.392;15.656;2023-04-01T17:15:07;2.80;1.00
35607;DHT22;21729;58.392;15.656;2023-04-01T17:17:45;2.50;1.00
35607;DHT22;21729;58.392;15.656;2023-04-01T17:20:29;2.60;1.00
35607;DHT22;21729;58.392;15.656;2023-04-01T17:23:01;2.50;1.00
35607;DHT22;21729;58.392;15.656;2023-04-01T17:28:41;2.40;1.00
35607;DHT22;21729;58.392;15.656;2023-04-01T17:31:20;2.40;1.00
35607;DHT22;21729;58.392;15.656;2023-04-01T17:34:20;2.20;1.00
35607;DHT22;21729;58.392;15.656;2023-04-01T17:37:03;2.10;1.00